sensor_id;sensor_type;location;lat;lon;timestamp;pressure;altitude;pressure_sealevel;temperature;humidity
65716;BME280;63484;52.054;8.518;2022-10-31T00:04:51;101124.59;;;13.73;88.19
65716;BME280;63484;52.054;8.518;2022-10-31T00:09:52;101124.19;;;13.52;89.16
65716;BME280;63484;52.054;8.518;2022-10-31T00:14:52;101130.44;;;13.51;89.58
65716;BME280;63484;52.054;8.518;2022-10-31T00:19:52;101125.59;;;13.31;89.54
65716;BME280;63484;52.054;8.518;2022-10-31T00:24:53;101138.94;;;13.16;90.25
65716;BME280;63484;52.054;8.518;2022-10-31T00:29:53;101146.00;;;13.15;90.94
65716;BME280;63484;52.054;8.518;2022-10-31T00:34:53;101142.03;;;13.08;91.53
65716;BME280;63484;52.054;8.518;2022-10-31T00:39:54;101155.16;;;12.96;91.86
65716;BME280;63484;52.054;8.518;2022-10-31T00:44:54;101144.41;;;12.85;92.47
65716;BME280;63484;52.054;8.518;2022-10-31T00:49:55;101150.38;;;12.74;92.99
65716;BME280;63484;52.054;8.518;2022-10-31T00:54:55;101149.63;;;12.72;93.26
65716;BME280;63484;52.054;8.518;2022-10-31T00:59:55;101144.88;;;12.63;92.42
65716;BME280;63484;52.054;8.518;2022-10-31T01:04:56;101146.94;;;12.58;92.86
65716;BME280;63484;52.054;8.518;2022-10-31T01:09:56;101157.69;;;12.55;93.79
65716;BME280;63484;52.054;8.518;2022-10-31T01:14:56;101168.34;;;12.39;93.81
65716;BME280;63484;52.054;8.518;2022-10-31T01:19:57;101174.06;;;12.32;94.06
65716;BME280;63484;52.054;8.518;2022-10-31T01:25:00;101175.84;;;12.31;94.19
65716;BME280;63484;52.054;8.518;2022-10-31T01:30:01;101164.06;;;12.23;94.22
65716;BME280;63484;52.054;8.518;2022-10-31T01:35:01;101166.22;;;12.16;94.46
65716;BME280;63484;52.054;8.518;2022-10-31T01:40:02;101167.50;;;12.09;94.89
65716;BME280;63484;52.054;8.518;2022-10-31T01:45:03;101163.09;;;12.10;95.40
65716;BME280;63484;52.054;8.518;2022-10-31T01:50:10;101161.59;;;12.06;95.58
65716;BME280;63484;52.054;8.518;2022-10-31T02:00:14;101145.03;;;11.88;95.11
65716;BME280;63484;52.054;8.518;2022-10-31T02:05:18;101140.31;;;11.79;95.47
65716;BME280;63484;52.054;8.518;2022-10-31T02:10:22;101162.75;;;11.71;95.73
65716;BME280;63484;52.054;8.518;2022-10-31T02:15:22;101161.72;;;11.58;96.33
65716;BME280;63484;52.054;8.518;2022-10-31T02:20:25;101158.41;;;11.54;96.31
65716;BME280;63484;52.054;8.518;2022-10-31T02:31:16;101161.06;;;11.54;96.57
65716;BME280;63484;52.054;8.518;2022-10-31T02:46:50;101163.63;;;11.56;96.53
65716;BME280;63484;52.054;8.518;2022-10-31T02:51:53;101170.50;;;11.58;96.17
65716;BME280;63484;52.054;8.518;2022-10-31T02:57:02;101193.16;;;11.61;95.77
65716;BME280;63484;52.054;8.518;2022-10-31T03:07:30;101201.88;;;11.78;96.27
65716;BME280;63484;52.054;8.518;2022-10-31T03:12:40;101201.41;;;11.86;96.22
65716;BME280;63484;52.054;8.518;2022-10-31T03:17:53;101202.59;;;11.96;96.18
65716;BME280;63484;52.054;8.518;2022-10-31T03:22:57;101194.69;;;11.96;95.91
65716;BME280;63484;52.054;8.518;2022-10-31T03:27:59;101183.78;;;12.02;96.05
65716;BME280;63484;52.054;8.518;2022-10-31T03:33:03;101183.88;;;12.00;95.43
65716;BME280;63484;52.054;8.518;2022-10-31T03:38:05;101170.06;;;11.81;95.80
65716;BME280;63484;52.054;8.518;2022-10-31T03:43:10;101177.06;;;11.67;95.78
65716;BME280;63484;52.054;8.518;2022-10-31T03:48:14;101179.03;;;11.63;96.06
65716;BME280;63484;52.054;8.518;2022-10-31T03:53:52;101169.03;;;11.53;96.32
65716;BME280;63484;52.054;8.518;2022-10-31T03:58:59;101182.13;;;11.39;96.72
65716;BME280;63484;52.054;8.518;2022-10-31T04:04:03;101196.00;;;11.27;96.93
65716;BME280;63484;52.054;8.518;2022-10-31T04:09:05;101194.47;;;11.23;97.20
65716;BME280;63484;52.054;8.518;2022-10-31T04:14:08;101190.28;;;11.18;97.84
65716;BME280;63484;52.054;8.518;2022-10-31T04:19:11;101189.84;;;11.10;97.74
65716;BME280;63484;52.054;8.518;2022-10-31T04:24:13;101198.44;;;10.98;97.63
65716;BME280;63484;52.054;8.518;2022-10-31T04:29:15;101193.41;;;10.94;98.08
65716;BME280;63484;52.054;8.518;2022-10-31T04:34:16;101193.81;;;10.86;98.13
65716;BME280;63484;52.054;8.518;2022-10-31T04:39:17;101195.59;;;10.86;98.01
65716;BME280;63484;52.054;8.518;2022-10-31T04:44:40;101194.41;;;10.76;97.57
65716;BME280;63484;52.054;8.518;2022-10-31T04:49:40;101188.69;;;10.68;97.91
65716;BME280;63484;52.054;8.518;2022-10-31T04:54:41;101184.75;;;10.59;97.70
65716;BME280;63484;52.054;8.518;2022-10-31T05:00:02;101191.16;;;10.54;97.75
65716;BME280;63484;52.054;8.518;2022-10-31T05:05:03;101180.03;;;10.49;97.63
65716;BME280;63484;52.054;8.518;2022-10-31T05:10:10;101175.09;;;10.43;97.75
65716;BME280;63484;52.054;8.518;2022-10-31T05:15:12;101178.44;;;10.46;98.95
65716;BME280;63484;52.054;8.518;2022-10-31T05:20:44;101180.53;;;10.40;98.73
65716;BME280;63484;52.054;8.518;2022-10-31T05:25:59;101173.78;;;10.34;98.55
65716;BME280;63484;52.054;8.518;2022-10-31T05:30:59;101163.78;;;10.25;99.02
65716;BME280;63484;52.054;8.518;2022-10-31T05:36:00;101173.06;;;10.32;99.55
65716;BME280;63484;52.054;8.518;2022-10-31T05:41:09;101175.16;;;10.26;99.72
65716;BME280;63484;52.054;8.518;2022-10-31T05:46:10;101174.81;;;10.32;100.00
65716;BME280;63484;52.054;8.518;2022-10-31T05:51:39;101171.25;;;10.33;100.00
65716;BME280;63484;52.054;8.518;2022-10-31T05:56:42;101168.81;;;10.13;99.30
65716;BME280;63484;52.054;8.518;2022-10-31T06:01:43;101176.97;;;10.07;99.23
65716;BME280;63484;52.054;8.518;2022-10-31T06:06:59;101181.88;;;9.96;98.65
65716;BME280;63484;52.054;8.518;2022-10-31T06:11:59;101181.44;;;9.88;98.90
65716;BME280;63484;52.054;8.518;2022-10-31T06:17:00;101186.75;;;9.86;98.36
65716;BME280;63484;52.054;8.518;2022-10-31T06:22:29;101193.25;;;9.79;97.89
65716;BME280;63484;52.054;8.518;2022-10-31T06:27:30;101192.47;;;9.77;97.85
65716;BME280;63484;52.054;8.518;2022-10-31T06:32:32;101185.97;;;9.84;97.86
65716;BME280;63484;52.054;8.518;2022-10-31T06:37:32;101183.16;;;9.89;97.46
65716;BME280;63484;52.054;8.518;2022-10-31T06:42:39;101194.19;;;9.95;97.29
65716;BME280;63484;52.054;8.518;2022-10-31T06:47:40;101206.66;;;10.09;97.00
65716;BME280;63484;52.054;8.518;2022-10-31T06:52:49;101213.69;;;10.25;95.34
65716;BME280;63484;52.054;8.518;2022-10-31T06:57:54;101221.34;;;10.47;94.36
65716;BME280;63484;52.054;8.518;2022-10-31T07:02:57;101220.09;;;10.71;93.01
65716;BME280;63484;52.054;8.518;2022-10-31T07:08:00;101228.94;;;10.85;92.22
65716;BME280;63484;52.054;8.518;2022-10-31T07:13:06;101230.34;;;11.08;90.71
65716;BME280;63484;52.054;8.518;2022-10-31T07:18:11;101222.91;;;11.32;90.30
65716;BME280;63484;52.054;8.518;2022-10-31T07:23:13;101214.41;;;11.89;87.42
65716;BME280;63484;52.054;8.518;2022-10-31T07:28:15;101211.53;;;12.37;85.04
65716;BME280;63484;52.054;8.518;2022-10-31T07:33:20;101213.00;;;12.56;83.71
65716;BME280;63484;52.054;8.518;2022-10-31T07:38:43;101207.06;;;12.95;83.55
65716;BME280;63484;52.054;8.518;2022-10-31T07:43:44;101207.91;;;13.78;80.71
65716;BME280;63484;52.054;8.518;2022-10-31T07:48:50;101218.06;;;14.63;76.76
65716;BME280;63484;52.054;8.518;2022-10-31T07:54:19;101222.91;;;15.19;75.19
65716;BME280;63484;52.054;8.518;2022-10-31T07:59:19;101218.38;;;14.83;76.97
65716;BME280;63484;52.054;8.518;2022-10-31T08:04:22;101223.16;;;14.91;76.69
65716;BME280;63484;52.054;8.518;2022-10-31T08:09:41;101218.94;;;14.51;78.99
65716;BME280;63484;52.054;8.518;2022-10-31T08:14:52;101210.22;;;14.49;80.13
65716;BME280;63484;52.054;8.518;2022-10-31T08:19:53;101218.38;;;14.71;78.43
65716;BME280;63484;52.054;8.518;2022-10-31T08:24:58;101224.00;;;14.54;79.84
65716;BME280;63484;52.054;8.518;2022-10-31T08:29:58;101219.31;;;14.45;80.44
65716;BME280;63484;52.054;8.518;2022-10-31T08:34:59;101210.28;;;14.35;81.45
65716;BME280;63484;52.054;8.518;2022-10-31T08:40:18;101211.69;;;14.28;81.87
65716;BME280;63484;52.054;8.518;2022-10-31T08:45:18;101197.03;;;14.22;82.42
65716;BME280;63484;52.054;8.518;2022-10-31T08:50:19;101201.13;;;14.14;83.95
65716;BME280;63484;52.054;8.518;2022-10-31T08:55:21;101203.19;;;14.23;83.81
65716;BME280;63484;52.054;8.518;2022-10-31T09:00:36;101191.28;;;14.55;82.36
65716;BME280;63484;52.054;8.518;2022-10-31T09:05:44;101183.34;;;14.80;82.07
65716;BME280;63484;52.054;8.518;2022-10-31T09:10:46;101179.94;;;14.90;80.99
65716;BME280;63484;52.054;8.518;2022-10-31T09:15:50;101171.03;;;14.91;81.42
65716;BME280;63484;52.054;8.518;2022-10-31T09:20:59;101169.22;;;14.92;82.19
65716;BME280;63484;52.054;8.518;2022-10-31T09:26:01;101169.09;;;15.06;81.38
65716;BME280;63484;52.054;8.518;2022-10-31T09:31:17;101165.28;;;15.10;81.47
65716;BME280;63484;52.054;8.518;2022-10-31T09:36:20;101163.97;;;15.28;81.37
65716;BME280;63484;52.054;8.518;2022-10-31T09:58:32;101168.88;;;15.81;79.35
65716;BME280;63484;52.054;8.518;2022-10-31T10:03:44;101177.09;;;15.89;79.12
65716;BME280;63484;52.054;8.518;2022-10-31T10:09:09;101171.84;;;16.00;78.77
65716;BME280;63484;52.054;8.518;2022-10-31T10:25:25;101157.47;;;16.37;77.60
65716;BME280;63484;52.054;8.518;2022-10-31T10:30:33;101164.66;;;16.59;77.47
65716;BME280;63484;52.054;8.518;2022-10-31T10:35:53;101154.03;;;16.70;77.02
65716;BME280;63484;52.054;8.518;2022-10-31T10:40:58;101146.81;;;16.72;76.58
65716;BME280;63484;52.054;8.518;2022-10-31T10:52:35;101130.25;;;16.80;77.07
65716;BME280;63484;52.054;8.518;2022-10-31T10:58:03;101119.41;;;16.94;76.80
65716;BME280;63484;52.054;8.518;2022-10-31T11:03:06;101103.28;;;17.17;75.55
65716;BME280;63484;52.054;8.518;2022-10-31T11:08:07;101092.13;;;17.45;73.54
65716;BME280;63484;52.054;8.518;2022-10-31T11:18:24;101081.81;;;18.04;70.75
65716;BME280;63484;52.054;8.518;2022-10-31T11:23:27;101077.81;;;18.19;71.16
65716;BME280;63484;52.054;8.518;2022-10-31T11:28:30;101081.78;;;18.45;69.90
65716;BME280;63484;52.054;8.518;2022-10-31T11:33:38;101070.06;;;18.57;69.13
65716;BME280;63484;52.054;8.518;2022-10-31T11:38:40;101065.06;;;18.43;69.63
65716;BME280;63484;52.054;8.518;2022-10-31T11:43:54;101056.84;;;18.46;69.56
65716;BME280;63484;52.054;8.518;2022-10-31T11:48:56;101051.78;;;18.23;70.45
65716;BME280;63484;52.054;8.518;2022-10-31T11:54:01;101039.59;;;18.20;70.65
65716;BME280;63484;52.054;8.518;2022-10-31T11:59:05;101031.66;;;18.09;70.81
65716;BME280;63484;52.054;8.518;2022-10-31T12:04:10;101030.88;;;18.18;71.48
65716;BME280;63484;52.054;8.518;2022-10-31T12:09:18;101019.06;;;18.11;72.45
65716;BME280;63484;52.054;8.518;2022-10-31T12:19:36;101006.56;;;18.32;71.71
65716;BME280;63484;52.054;8.518;2022-10-31T12:24:43;101005.47;;;18.35;70.92
65716;BME280;63484;52.054;8.518;2022-10-31T12:34:54;100980.22;;;18.69;70.37
65716;BME280;63484;52.054;8.518;2022-10-31T12:45:07;100961.13;;;18.54;70.36
65716;BME280;63484;52.054;8.518;2022-10-31T12:50:17;100953.69;;;18.58;70.24
65716;BME280;63484;52.054;8.518;2022-10-31T13:00:32;100930.41;;;18.50;70.36
65716;BME280;63484;52.054;8.518;2022-10-31T13:05:41;100918.34;;;18.46;70.00
65716;BME280;63484;52.054;8.518;2022-10-31T13:10:45;100915.38;;;18.40;70.29
65716;BME280;63484;52.054;8.518;2022-10-31T13:15:50;100911.19;;;18.47;69.35
65716;BME280;63484;52.054;8.518;2022-10-31T13:20:51;100897.03;;;18.46;70.16
65716;BME280;63484;52.054;8.518;2022-10-31T13:25:54;100897.06;;;18.56;69.79
65716;BME280;63484;52.054;8.518;2022-10-31T13:30:55;100887.50;;;18.63;69.42
65716;BME280;63484;52.054;8.518;2022-10-31T13:41:09;100874.34;;;18.71;69.92
65716;BME280;63484;52.054;8.518;2022-10-31T13:51:44;100855.53;;;18.72;70.00
65716;BME280;63484;52.054;8.518;2022-10-31T13:56:47;100856.97;;;18.67;70.07
65716;BME280;63484;52.054;8.518;2022-10-31T14:01:58;100844.59;;;18.47;70.91
65716;BME280;63484;52.054;8.518;2022-10-31T14:07:05;100833.81;;;18.39;71.20
65716;BME280;63484;52.054;8.518;2022-10-31T14:12:12;100827.50;;;18.40;71.21
65716;BME280;63484;52.054;8.518;2022-10-31T14:17:25;100815.72;;;18.42;71.71
65716;BME280;63484;52.054;8.518;2022-10-31T14:22:30;100805.38;;;18.39;71.17
65716;BME280;63484;52.054;8.518;2022-10-31T14:27:34;100803.47;;;18.30;71.84
65716;BME280;63484;52.054;8.518;2022-10-31T14:32:36;100788.91;;;18.25;71.86
65716;BME280;63484;52.054;8.518;2022-10-31T14:52:56;100759.06;;;18.02;73.82
65716;BME280;63484;52.054;8.518;2022-10-31T14:58:01;100758.91;;;17.94;73.70
65716;BME280;63484;52.054;8.518;2022-10-31T15:03:15;100753.44;;;17.86;74.32
65716;BME280;63484;52.054;8.518;2022-10-31T15:08:27;100746.41;;;17.75;75.17
65716;BME280;63484;52.054;8.518;2022-10-31T15:13:29;100746.38;;;17.66;75.02
65716;BME280;63484;52.054;8.518;2022-10-31T15:18:29;100734.06;;;17.65;74.58
65716;BME280;63484;52.054;8.518;2022-10-31T15:23:29;100724.94;;;17.58;75.07
65716;BME280;63484;52.054;8.518;2022-10-31T15:28:31;100706.75;;;17.53;75.17
65716;BME280;63484;52.054;8.518;2022-10-31T15:33:38;100709.69;;;17.50;75.02
65716;BME280;63484;52.054;8.518;2022-10-31T15:38:39;100698.72;;;17.44;74.60
65716;BME280;63484;52.054;8.518;2022-10-31T15:43:39;100702.03;;;17.36;75.39
65716;BME280;63484;52.054;8.518;2022-10-31T15:48:43;100687.19;;;17.34;75.01
65716;BME280;63484;52.054;8.518;2022-10-31T15:53:50;100686.06;;;17.27;75.59
65716;BME280;63484;52.054;8.518;2022-10-31T15:58:53;100680.59;;;17.28;75.33
65716;BME280;63484;52.054;8.518;2022-10-31T16:03:59;100686.59;;;17.21;75.02
65716;BME280;63484;52.054;8.518;2022-10-31T16:09:00;100691.88;;;17.11;75.20
65716;BME280;63484;52.054;8.518;2022-10-31T16:14:14;100690.31;;;17.09;75.14
65716;BME280;63484;52.054;8.518;2022-10-31T16:19:16;100681.50;;;16.99;75.63
65716;BME280;63484;52.054;8.518;2022-10-31T16:24:20;100689.59;;;16.97;75.44
65716;BME280;63484;52.054;8.518;2022-10-31T16:29:34;100676.63;;;17.04;74.83
65716;BME280;63484;52.054;8.518;2022-10-31T16:34:35;100680.59;;;16.89;75.73
65716;BME280;63484;52.054;8.518;2022-10-31T16:39:36;100687.94;;;16.76;76.68
65716;BME280;63484;52.054;8.518;2022-10-31T16:44:36;100696.69;;;16.67;77.53
65716;BME280;63484;52.054;8.518;2022-10-31T16:49:36;100695.81;;;16.56;77.29
65716;BME280;63484;52.054;8.518;2022-10-31T16:54:37;100701.63;;;16.50;77.84
65716;BME280;63484;52.054;8.518;2022-10-31T16:59:37;100688.38;;;16.39;78.32
65716;BME280;63484;52.054;8.518;2022-10-31T17:04:37;100693.34;;;16.33;79.13
65716;BME280;63484;52.054;8.518;2022-10-31T17:09:37;100691.09;;;16.28;79.20
65716;BME280;63484;52.054;8.518;2022-10-31T17:14:38;100670.13;;;16.25;79.54
65716;BME280;63484;52.054;8.518;2022-10-31T17:19:38;100648.59;;;16.19;80.33
65716;BME280;63484;52.054;8.518;2022-10-31T17:24:38;100648.31;;;16.22;80.41
65716;BME280;63484;52.054;8.518;2022-10-31T17:29:38;100649.50;;;16.29;79.47
65716;BME280;63484;52.054;8.518;2022-10-31T17:34:39;100656.88;;;16.25;79.79
65716;BME280;63484;52.054;8.518;2022-10-31T17:39:39;100656.59;;;16.28;80.43
65716;BME280;63484;52.054;8.518;2022-10-31T17:44:39;100651.56;;;16.25;80.39
65716;BME280;63484;52.054;8.518;2022-10-31T17:49:40;100634.28;;;16.10;80.54
65716;BME280;63484;52.054;8.518;2022-10-31T17:54:40;100630.50;;;15.92;81.61
65716;BME280;63484;52.054;8.518;2022-10-31T17:59:40;100622.84;;;15.78;82.54
65716;BME280;63484;52.054;8.518;2022-10-31T18:04:41;100615.66;;;15.69;83.23
65716;BME280;63484;52.054;8.518;2022-10-31T18:09:41;100614.22;;;15.65;83.20
65716;BME280;63484;52.054;8.518;2022-10-31T18:14:41;100602.31;;;15.60;83.80
65716;BME280;63484;52.054;8.518;2022-10-31T18:19:42;100605.59;;;15.52;84.01
65716;BME280;63484;52.054;8.518;2022-10-31T18:24:42;100594.56;;;15.36;84.74
65716;BME280;63484;52.054;8.518;2022-10-31T18:29:42;100591.97;;;15.14;85.52
65716;BME280;63484;52.054;8.518;2022-10-31T18:34:43;100584.53;;;14.97;86.21
65716;BME280;63484;52.054;8.518;2022-10-31T18:39:43;100579.25;;;14.86;87.56
65716;BME280;63484;52.054;8.518;2022-10-31T18:44:43;100569.16;;;14.80;87.62
65716;BME280;63484;52.054;8.518;2022-10-31T18:49:43;100549.19;;;14.76;87.45
65716;BME280;63484;52.054;8.518;2022-10-31T18:54:44;100536.81;;;14.54;87.91
65716;BME280;63484;52.054;8.518;2022-10-31T18:59:44;100526.84;;;14.36;89.04
65716;BME280;63484;52.054;8.518;2022-10-31T19:04:44;100529.00;;;14.31;90.28
65716;BME280;63484;52.054;8.518;2022-10-31T19:09:45;100535.28;;;14.30;89.92
65716;BME280;63484;52.054;8.518;2022-10-31T19:14:45;100523.31;;;14.24;90.26
65716;BME280;63484;52.054;8.518;2022-10-31T19:19:45;100526.91;;;14.12;90.01
65716;BME280;63484;52.054;8.518;2022-10-31T19:24:46;100517.41;;;13.99;90.20
65716;BME280;63484;52.054;8.518;2022-10-31T19:29:46;100510.19;;;14.01;91.39
65716;BME280;63484;52.054;8.518;2022-10-31T19:34:46;100509.13;;;14.03;91.24
65716;BME280;63484;52.054;8.518;2022-10-31T19:39:47;100515.13;;;14.05;90.52
65716;BME280;63484;52.054;8.518;2022-10-31T19:44:47;100500.47;;;14.01;90.48
65716;BME280;63484;52.054;8.518;2022-10-31T19:49:47;100499.41;;;14.04;90.58
65716;BME280;63484;52.054;8.518;2022-10-31T19:54:47;100494.81;;;13.94;90.87
65716;BME280;63484;52.054;8.518;2022-10-31T19:59:48;100495.78;;;13.93;91.13
65716;BME280;63484;52.054;8.518;2022-10-31T20:04:48;100483.06;;;13.99;91.66
65716;BME280;63484;52.054;8.518;2022-10-31T20:09:48;100479.44;;;14.00;91.30
65716;BME280;63484;52.054;8.518;2022-10-31T20:14:49;100474.63;;;14.05;91.48
65716;BME280;63484;52.054;8.518;2022-10-31T20:19:49;100486.28;;;14.13;91.95
65716;BME280;63484;52.054;8.518;2022-10-31T20:24:50;100482.78;;;14.24;91.67
65716;BME280;63484;52.054;8.518;2022-10-31T20:29:50;100479.34;;;14.34;91.15
65716;BME280;63484;52.054;8.518;2022-10-31T20:34:50;100473.91;;;14.47;90.65
65716;BME280;63484;52.054;8.518;2022-10-31T20:39:50;100474.41;;;14.52;90.00
65716;BME280;63484;52.054;8.518;2022-10-31T20:44:51;100468.50;;;14.48;89.99
65716;BME280;63484;52.054;8.518;2022-10-31T20:49:51;100470.44;;;14.57;88.89
65716;BME280;63484;52.054;8.518;2022-10-31T20:54:51;100458.28;;;14.55;89.21
65716;BME280;63484;52.054;8.518;2022-10-31T20:59:52;100454.31;;;14.49;89.37
65716;BME280;63484;52.054;8.518;2022-10-31T21:04:52;100451.78;;;14.48;88.74
65716;BME280;63484;52.054;8.518;2022-10-31T21:09:52;100456.25;;;14.47;88.61
65716;BME280;63484;52.054;8.518;2022-10-31T21:14:52;100466.09;;;14.56;88.27
65716;BME280;63484;52.054;8.518;2022-10-31T21:19:53;100470.75;;;14.64;87.45
65716;BME280;63484;52.054;8.518;2022-10-31T21:24:53;100473.19;;;14.67;87.53
65716;BME280;63484;52.054;8.518;2022-10-31T21:29:53;100467.38;;;14.73;86.95
65716;BME280;63484;52.054;8.518;2022-10-31T21:34:53;100459.53;;;14.82;86.75
65716;BME280;63484;52.054;8.518;2022-10-31T21:39:54;100453.16;;;14.74;86.94
65716;BME280;63484;52.054;8.518;2022-10-31T21:44:54;100455.13;;;14.72;86.63
65716;BME280;63484;52.054;8.518;2022-10-31T21:49:54;100452.47;;;14.72;86.40
65716;BME280;63484;52.054;8.518;2022-10-31T21:54:54;100446.66;;;14.78;85.59
65716;BME280;63484;52.054;8.518;2022-10-31T21:59:55;100449.78;;;14.83;85.20
65716;BME280;63484;52.054;8.518;2022-10-31T22:04:55;100452.69;;;14.80;84.73
65716;BME280;63484;52.054;8.518;2022-10-31T22:09:55;100447.28;;;14.70;84.89
65716;BME280;63484;52.054;8.518;2022-10-31T22:14:55;100438.78;;;14.56;85.33
65716;BME280;63484;52.054;8.518;2022-10-31T22:19:57;100432.22;;;14.39;86.13
65716;BME280;63484;52.054;8.518;2022-10-31T22:24:57;100421.53;;;14.30;86.85
65716;BME280;63484;52.054;8.518;2022-10-31T22:29:57;100413.13;;;14.25;87.09
65716;BME280;63484;52.054;8.518;2022-10-31T22:34:58;100401.06;;;14.21;87.22
65716;BME280;63484;52.054;8.518;2022-10-31T22:39:58;100381.13;;;14.28;86.21
65716;BME280;63484;52.054;8.518;2022-10-31T22:44:58;100365.53;;;14.25;85.68
65716;BME280;63484;52.054;8.518;2022-10-31T22:50:00;100349.03;;;14.21;85.60
65716;BME280;63484;52.054;8.518;2022-10-31T22:55:00;100357.09;;;14.20;85.06
65716;BME280;63484;52.054;8.518;2022-10-31T23:00:01;100347.44;;;14.19;85.10
65716;BME280;63484;52.054;8.518;2022-10-31T23:05:01;100344.13;;;14.17;85.13
65716;BME280;63484;52.054;8.518;2022-10-31T23:10:02;100336.19;;;14.28;84.23
65716;BME280;63484;52.054;8.518;2022-10-31T23:15:02;100340.75;;;14.26;84.26
65716;BME280;63484;52.054;8.518;2022-10-31T23:20:03;100327.78;;;14.01;85.09
65716;BME280;63484;52.054;8.518;2022-10-31T23:25:03;100321.34;;;13.82;86.03
65716;BME280;63484;52.054;8.518;2022-10-31T23:30:04;100316.88;;;13.83;86.63
65716;BME280;63484;52.054;8.518;2022-10-31T23:35:06;100315.34;;;13.69;86.65
65716;BME280;63484;52.054;8.518;2022-10-31T23:40:06;100318.09;;;13.46;87.42
65716;BME280;63484;52.054;8.518;2022-10-31T23:45:07;100319.56;;;13.39;88.27
65716;BME280;63484;52.054;8.518;2022-10-31T23:50:08;100322.78;;;13.42;88.82
65716;BME280;63484;52.054;8.518;2022-10-31T23:55:08;100315.22;;;13.38;88.95
